Time;durP1;ratioP1;P1;durP2;ratioP2;P2;SDS_P1;SDS_P2;PMS_P1;PMS_P2;Temp;Humidity;BMP_temperature;BMP_pressure;BME280_temperature;BME280_humidity;BME280_pressure;Samples;Min_cycle;Max_cycle;Signal;HPM_P1;HPM_P2
2022/07/06 00:01:19;;;;;;;;;;;;;;;23.21;75.38;153489.78;1715436;83;20164;-67
2022/07/06 00:03:46;;;;;;;;;;;;;;;23.21;75.24;153491.13;1715086;83;20141;-65
2022/07/06 00:06:14;;;;;;;;;;;;;;;23.20;75.15;153488.45;1715018;83;22288;-66
2022/07/06 00:08:40;;;;;;;;;;;;;;;23.19;74.91;153485.84;1714895;83;20125;-64
2022/07/06 00:11:07;;;;;;;;;;;;;;;23.16;74.94;153479.33;1714705;83;20209;-66
2022/07/06 00:13:34;;;;;;;;;;;;;;;23.14;74.94;153474.11;1714821;83;20197;-65
2022/07/06 00:16:00;;;;;;;;;;;;;;;23.14;74.93;153472.77;1714863;83;20300;-65
2022/07/06 00:18:29;;;;;;;;;;;;;;;23.13;74.92;153470.16;1714775;83;21161;-65
2022/07/06 00:20:56;;;;;;;;;;;;;;;23.13;74.84;153471.48;1714696;83;20401;-65
2022/07/06 00:23:23;;;;;;;;;;;;;;;23.11;74.71;153466.25;1714971;83;20177;-65
2022/07/06 00:25:49;;;;;;;;;;;;;;;23.07;74.65;153455.75;1714711;83;20174;-65
2022/07/06 00:28:16;;;;;;;;;;;;;;;23.02;74.95;153444.00;1718274;83;20454;-65
2022/07/06 00:30:44;;;;;;;;;;;;;;;23.01;74.90;153440.06;1720541;83;39374;-65
2022/07/06 00:33:10;;;;;;;;;;;;;;;22.97;74.75;153430.87;1720315;83;20150;-65
2022/07/06 00:35:37;;;;;;;;;;;;;;;22.92;74.78;153416.53;1720618;83;20177;-65
2022/07/06 00:38:04;;;;;;;;;;;;;;;22.93;74.68;153419.14;1720141;83;20504;-65
2022/07/06 00:40:31;;;;;;;;;;;;;;;22.90;74.50;153412.59;1720394;83;20173;-64
2022/07/06 00:42:58;;;;;;;;;;;;;;;22.85;74.71;153399.50;1720504;83;21252;-63
2022/07/06 00:45:25;;;;;;;;;;;;;;;22.84;74.67;153398.19;1720565;83;20169;-64
2022/07/06 00:47:51;;;;;;;;;;;;;;;22.81;74.51;153390.34;1720382;83;20441;-63
2022/07/06 00:50:20;;;;;;;;;;;;;;;22.78;74.58;153382.50;1720669;83;20184;-64
2022/07/06 00:52:51;;;;;;;;;;;;;;;22.75;74.60;153374.66;1720428;83;20444;-64
2022/07/06 00:55:21;;;;;;;;;;;;;;;22.69;74.71;153358.97;1720819;83;21100;-64
2022/07/06 00:57:48;;;;;;;;;;;;;;;22.64;74.95;153345.84;1720401;83;20207;-64
2022/07/06 01:00:17;;;;;;;;;;;;;;;22.57;75.12;153328.88;1717566;83;20426;-64
2022/07/06 01:02:44;;;;;;;;;;;;;;;22.52;75.41;153317.09;1710634;83;20135;-64
2022/07/06 01:05:12;;;;;;;;;;;;;;;22.49;75.87;153309.25;1717072;83;20141;-64
2022/07/06 01:07:39;;;;;;;;;;;;;;;22.52;76.08;153317.09;1686809;85;22152;-65
2022/07/06 01:10:07;;;;;;;;;;;;;;;22.54;75.70;153322.31;1717667;83;20189;-64
2022/07/06 01:12:36;;;;;;;;;;;;;;;22.56;75.27;153327.55;1693069;84;20135;-64
2022/07/06 01:15:05;;;;;;;;;;;;;;;22.56;74.88;153327.55;1690408;84;21051;-65
2022/07/06 01:17:33;;;;;;;;;;;;;;;22.52;74.90;153317.09;1729978;83;20169;-66
2022/07/06 01:20:20;;;;;;;;;;;;;;;22.51;74.95;153314.48;1747699;82;21150;-66
2022/07/06 01:22:47;;;;;;;;;;;;;;;22.55;74.79;153324.94;1747523;82;20186;-66
2022/07/06 01:25:16;;;;;;;;;;;;;;;22.57;74.13;153330.16;1747507;82;20144;-65
2022/07/06 01:27:42;;;;;;;;;;;;;;;22.54;73.80;153322.31;1746427;82;20206;-65
2022/07/06 01:30:15;;;;;;;;;;;;;;;22.50;73.56;153311.88;1744986;81;20142;-65
2022/07/06 01:32:43;;;;;;;;;;;;;;;22.48;73.53;153306.64;1745508;82;21872;-64
2022/07/06 01:35:11;;;;;;;;;;;;;;;22.49;73.33;153307.92;1745223;82;20139;-65
2022/07/06 01:37:39;;;;;;;;;;;;;;;22.46;73.08;153302.69;1745562;82;20179;-65
2022/07/06 01:40:09;;;;;;;;;;;;;;;22.40;72.84;153285.62;1745569;82;21277;-65
2022/07/06 01:42:36;;;;;;;;;;;;;;;22.33;72.49;153269.95;1745593;82;20175;-67
2022/07/06 01:45:04;;;;;;;;;;;;;;;22.29;72.17;153259.50;1745192;81;21243;-68
2022/07/06 01:47:32;;;;;;;;;;;;;;;22.26;71.92;153251.66;1745504;82;20435;-67
2022/07/06 01:50:00;;;;;;;;;;;;;;;22.25;71.97;153247.72;1745157;82;20214;-68
2022/07/06 01:52:27;;;;;;;;;;;;;;;22.24;72.17;153245.09;1745355;82;20447;-68
2022/07/06 01:54:55;;;;;;;;;;;;;;;22.20;72.51;153234.64;1745448;82;20512;-67
2022/07/06 01:57:22;;;;;;;;;;;;;;;22.18;72.71;153230.69;1745517;82;21152;-67
2022/07/06 01:59:49;;;;;;;;;;;;;;;22.16;72.72;153225.47;1745077;82;20198;-68
2022/07/06 02:02:17;;;;;;;;;;;;;;;22.14;72.85;153220.25;1745492;82;20175;-65
2022/07/06 02:04:44;;;;;;;;;;;;;;;22.11;73.12;153212.41;1745240;82;20174;-65
2022/07/06 02:07:12;;;;;;;;;;;;;;;22.10;73.49;153209.80;1745310;82;20155;-65
2022/07/06 02:09:38;;;;;;;;;;;;;;;22.09;74.06;153208.47;1745612;82;21255;-65
2022/07/06 02:12:07;;;;;;;;;;;;;;;22.10;74.29;153209.80;1746674;82;20213;-65
2022/07/06 02:14:35;;;;;;;;;;;;;;;22.12;74.51;153215.02;1746988;82;20197;-66
2022/07/06 02:17:02;;;;;;;;;;;;;;;22.14;74.51;153220.25;1746943;82;20196;-66
2022/07/06 02:19:28;;;;;;;;;;;;;;;22.17;74.44;153228.09;1747040;82;20465;-66
2022/07/06 02:21:56;;;;;;;;;;;;;;;22.20;74.41;153235.92;1747144;82;22151;-66
2022/07/06 02:24:23;;;;;;;;;;;;;;;22.24;74.36;153245.09;1746964;82;20511;-67
2022/07/06 02:26:49;;;;;;;;;;;;;;;22.28;74.32;153256.87;1746826;82;20360;-66
2022/07/06 02:29:16;;;;;;;;;;;;;;;22.34;74.06;153271.28;1737561;80;20200;-67
2022/07/06 02:31:43;;;;;;;;;;;;;;;22.44;73.78;153296.14;1764962;81;20481;-67
2022/07/06 02:34:10;;;;;;;;;;;;;;;22.55;73.45;153324.94;1764965;81;21502;-66
2022/07/06 02:36:38;;;;;;;;;;;;;;;22.66;72.93;153351.08;1764850;81;20394;-66
2022/07/06 02:39:06;;;;;;;;;;;;;;;22.81;72.40;153390.34;1764754;81;20172;-66
2022/07/06 02:41:34;;;;;;;;;;;;;;;22.92;72.15;153417.81;1765085;81;20128;-66
2022/07/06 02:44:01;;;;;;;;;;;;;;;22.97;71.80;153430.87;1764860;81;20188;-65
2022/07/06 02:46:28;;;;;;;;;;;;;;;23.01;71.59;153440.06;1764974;81;21212;-65
2022/07/06 02:48:54;;;;;;;;;;;;;;;23.07;71.21;153455.75;1759795;81;20153;-65
2022/07/06 02:51:23;;;;;;;;;;;;;;;23.11;70.95;153466.25;1751206;81;20460;-66
2022/07/06 02:53:50;;;;;;;;;;;;;;;23.12;70.40;153468.88;1764860;81;20164;-66
2022/07/06 02:56:17;;;;;;;;;;;;;;;23.13;70.32;153471.48;1764830;81;20236;-65
2022/07/06 02:58:44;;;;;;;;;;;;;;;23.17;70.51;153481.94;1764790;81;21208;-65
2022/07/06 03:01:12;;;;;;;;;;;;;;;23.23;70.50;153496.34;1765057;81;20430;-65
2022/07/06 03:03:40;;;;;;;;;;;;;;;23.29;70.09;153510.77;1764830;81;20453;-65
2022/07/06 03:06:08;;;;;;;;;;;;;;;23.31;70.03;153517.31;1764439;81;20142;-65
2022/07/06 03:08:34;;;;;;;;;;;;;;;23.33;70.23;153521.27;1765033;81;20193;-65
2022/07/06 03:11:01;;;;;;;;;;;;;;;23.34;70.00;153523.88;1751003;81;21196;-64
2022/07/06 03:13:30;;;;;;;;;;;;;;;23.34;70.08;153523.88;1738822;82;20158;-65
2022/07/06 03:15:57;;;;;;;;;;;;;;;23.35;70.46;153525.16;1738732;81;20416;-65
2022/07/06 03:18:24;;;;;;;;;;;;;;;23.35;70.99;153525.16;1738670;81;20182;-65
2022/07/06 03:20:54;;;;;;;;;;;;;;;23.38;71.14;153534.34;1738319;82;20456;-65
2022/07/06 03:23:21;;;;;;;;;;;;;;;23.41;71.50;153542.19;1738572;81;21077;-65
2022/07/06 03:25:48;;;;;;;;;;;;;;;23.39;71.94;153536.97;1738448;82;20730;-65
2022/07/06 03:28:15;;;;;;;;;;;;;;;23.38;72.00;153534.34;1737117;81;20146;-64
2022/07/06 03:30:42;;;;;;;;;;;;;;;23.38;71.95;153534.34;1730408;83;20167;-65
2022/07/06 03:33:10;;;;;;;;;;;;;;;23.42;72.14;153544.81;1730405;82;20424;-65
2022/07/06 03:35:38;;;;;;;;;;;;;;;23.52;72.17;153568.34;1730462;82;21128;-65
2022/07/06 03:38:05;;;;;;;;;;;;;;;23.61;72.16;153591.94;1730392;82;20342;-65
2022/07/06 03:40:33;;;;;;;;;;;;;;;23.68;72.21;153608.97;1730398;83;20155;-65
2022/07/06 03:43:02;;;;;;;;;;;;;;;23.76;72.17;153629.87;1730420;82;20734;-65
2022/07/06 03:45:31;;;;;;;;;;;;;;;23.86;71.90;153654.75;1730554;82;20175;-65
2022/07/06 03:47:59;;;;;;;;;;;;;;;23.95;71.87;153678.31;1730312;82;21129;-65
2022/07/06 03:50:25;;;;;;;;;;;;;;;24.03;71.94;153699.33;1730342;83;20179;-64
2022/07/06 03:52:52;;;;;;;;;;;;;;;24.18;71.73;153735.95;1730629;83;20515;-64
2022/07/06 03:55:19;;;;;;;;;;;;;;;24.30;70.55;153767.41;1730541;82;20127;-64
2022/07/06 03:57:49;;;;;;;;;;;;;;;24.44;69.72;153801.47;1730453;82;20432;-64
2022/07/06 04:00:17;;;;;;;;;;;;;;;24.61;69.01;153845.95;1730209;83;21247;-64
2022/07/06 04:02:46;;;;;;;;;;;;;;;24.81;68.17;153894.50;1730426;82;20170;-65
2022/07/06 04:05:15;;;;;;;;;;;;;;;24.99;67.04;153940.33;1730453;82;20167;-65
2022/07/06 04:07:42;;;;;;;;;;;;;;;25.18;66.21;153990.13;1730438;83;20450;-65
2022/07/06 04:10:09;;;;;;;;;;;;;;;25.36;65.28;154034.67;1725798;82;20173;-65
2022/07/06 04:12:41;;;;;;;;;;;;;;;25.53;64.12;154077.95;1704649;84;21784;-65
2022/07/06 04:15:10;;;;;;;;;;;;;;;25.70;63.92;154121.19;1704353;84;20143;-66
2022/07/06 04:17:54;;;;;;;;;;;;;;;25.86;63.47;154160.52;1704703;84;20150;-66
2022/07/06 04:20:31;;;;;;;;;;;;;;;25.97;63.27;154189.33;1704269;84;20431;-66
2022/07/06 04:22:58;;;;;;;;;;;;;;;26.09;62.46;154219.52;1704576;84;20170;-65
2022/07/06 04:25:26;;;;;;;;;;;;;;;26.16;62.93;154237.91;1704649;84;20523;-65
2022/07/06 04:27:53;;;;;;;;;;;;;;;26.27;63.50;154265.44;1704836;84;20422;-65
2022/07/06 04:30:21;;;;;;;;;;;;;;;26.42;64.05;154302.16;1712863;83;20177;-65
2022/07/06 04:32:48;;;;;;;;;;;;;;;26.52;64.78;154328.36;1714032;83;20236;-65
2022/07/06 04:35:15;;;;;;;;;;;;;;;26.59;65.68;154345.41;1714074;83;20435;-64
2022/07/06 04:37:42;;;;;;;;;;;;;;;26.68;65.74;154367.70;1704475;83;21144;-65
2022/07/06 04:40:10;;;;;;;;;;;;;;;26.77;63.20;154391.28;1686461;84;20702;-63
2022/07/06 04:42:37;;;;;;;;;;;;;;;26.87;62.27;154417.59;1686768;85;20453;-63
2022/07/06 04:45:08;;;;;;;;;;;;;;;27.01;61.58;154451.66;1686722;85;20206;-64
2022/07/06 04:47:36;;;;;;;;;;;;;;;27.15;60.20;154488.41;1687018;84;20165;-65
2022/07/06 04:50:04;;;;;;;;;;;;;;;27.27;59.86;154518.56;1686432;85;21243;-66
2022/07/06 04:52:31;;;;;;;;;;;;;;;27.40;59.68;154550.02;1686679;84;20189;-65
2022/07/06 04:54:58;;;;;;;;;;;;;;;27.50;59.31;154576.28;1686256;85;20197;-64
2022/07/06 04:57:25;;;;;;;;;;;;;;;27.59;59.33;154599.92;1686949;84;20149;-64
2022/07/06 04:59:54;;;;;;;;;;;;;;;27.68;60.33;154620.94;1686874;85;20177;-63
2022/07/06 05:02:21;;;;;;;;;;;;;;;27.77;60.73;154643.25;1686682;84;21098;-64
2022/07/06 05:04:48;;;;;;;;;;;;;;;27.88;60.85;154672.09;1686573;84;20206;-64
2022/07/06 05:07:15;;;;;;;;;;;;;;;27.98;60.96;154697.03;1686672;85;20427;-64
2022/07/06 05:09:43;;;;;;;;;;;;;;;28.08;60.38;154723.30;1686875;83;20210;-63
2022/07/06 05:12:10;;;;;;;;;;;;;;;28.19;59.05;154750.91;1715379;83;20439;-64
2022/07/06 05:14:37;;;;;;;;;;;;;;;28.31;57.78;154782.37;1715751;83;21151;-64
2022/07/06 05:17:05;;;;;;;;;;;;;;;28.42;57.15;154809.94;1715224;83;20509;-63
2022/07/06 05:19:33;;;;;;;;;;;;;;;28.53;56.11;154836.22;1715500;83;20138;-64
2022/07/06 05:22:01;;;;;;;;;;;;;;;28.67;55.14;154872.94;1715103;83;20443;-64
2022/07/06 05:24:28;;;;;;;;;;;;;;;28.79;53.40;154903.17;1715668;83;20154;-64
2022/07/06 05:26:55;;;;;;;;;;;;;;;28.91;51.17;154932.08;1715461;83;21865;-64
2022/07/06 05:29:22;;;;;;;;;;;;;;;29.03;50.04;154963.56;1734013;81;20160;-63
2022/07/06 05:31:50;;;;;;;;;;;;;;;29.16;50.33;154997.72;1768220;80;20189;-63
2022/07/06 05:34:17;;;;;;;;;;;;;;;29.33;49.94;155038.41;1768338;81;20138;-64
2022/07/06 05:36:45;;;;;;;;;;;;;;;29.48;51.15;155077.87;1762232;81;20204;-63
2022/07/06 05:39:12;;;;;;;;;;;;;;;29.58;53.85;155102.83;1762100;81;21299;-64
2022/07/06 05:41:39;;;;;;;;;;;;;;;29.65;54.11;155119.91;1761994;81;20441;-63
2022/07/06 05:44:06;;;;;;;;;;;;;;;29.64;54.09;155118.56;1762096;80;20177;-64
2022/07/06 05:46:34;;;;;;;;;;;;;;;29.68;54.25;155129.06;1762152;81;20169;-64
2022/07/06 05:51:46;;;;;;;;;;;;;;;29.71;53.34;155136.94;1762220;81;21136;-64
2022/07/06 05:54:13;;;;;;;;;;;;;;;29.72;53.53;155139.56;1762221;81;20141;-65
2022/07/06 05:56:40;;;;;;;;;;;;;;;29.78;54.12;155152.73;1763684;80;20200;-64
2022/07/06 05:59:08;;;;;;;;;;;;;;;29.84;54.23;155169.83;1755926;79;20161;-64
2022/07/06 06:01:36;;;;;;;;;;;;;;;29.89;53.89;155181.61;1708085;82;20508;-64
2022/07/06 06:04:04;;;;;;;;;;;;;;;29.92;53.22;155188.19;1730003;81;21263;-64
2022/07/06 06:06:32;;;;;;;;;;;;;;;29.95;52.17;155197.36;1706855;81;20204;-64
2022/07/06 06:08:59;;;;;;;;;;;;;;;29.96;51.13;155200.03;1732943;81;20174;-64
2022/07/06 06:11:27;;;;;;;;;;;;;;;30.01;49.80;155213.20;1775308;79;20149;-64
2022/07/06 06:13:56;;;;;;;;;;;;;;;30.11;49.60;155236.83;1760558;81;20200;-65
2022/07/06 06:16:25;;;;;;;;;;;;;;;30.21;49.50;155263.13;1767114;80;21236;-67
2022/07/06 06:18:52;;;;;;;;;;;;;;;30.28;48.42;155281.50;1756521;80;20191;-65
2022/07/06 06:21:19;;;;;;;;;;;;;;;30.34;47.84;155295.97;1762567;79;20165;-66
2022/07/06 06:23:46;;;;;;;;;;;;;;;30.42;47.06;155315.69;1764089;79;20192;-65
2022/07/06 06:26:12;;;;;;;;;;;;;;;30.48;47.02;155331.44;1763886;81;20176;-66
2022/07/06 06:28:41;;;;;;;;;;;;;;;30.52;47.16;155341.94;1768560;81;21273;-66
2022/07/06 06:31:08;;;;;;;;;;;;;;;30.55;45.76;155348.53;1758846;80;20179;-66
2022/07/06 06:33:35;;;;;;;;;;;;;;;30.59;45.01;155360.31;1765659;80;20197;-65
2022/07/06 06:36:02;;;;;;;;;;;;;;;30.62;44.76;155365.63;1764495;80;20448;-65
2022/07/06 06:38:29;;;;;;;;;;;;;;;30.63;45.22;155368.30;1776852;79;20116;-65
2022/07/06 06:40:56;;;;;;;;;;;;;;;30.65;45.30;155374.84;1756709;81;21241;-64
2022/07/06 06:43:22;;;;;;;;;;;;;;;30.73;46.01;155394.56;1747147;81;20168;-64
2022/07/06 06:45:59;;;;;;;;;;;;;;;30.77;46.09;155405.06;1745480;81;20414;-65
2022/07/06 06:48:26;;;;;;;;;;;;;;;30.77;45.54;155405.06;1745496;82;20208;-65
2022/07/06 06:50:52;;;;;;;;;;;;;;;30.78;45.89;155407.69;1745350;82;20168;-65
2022/07/06 06:53:19;;;;;;;;;;;;;;;30.78;44.77;155407.69;1745356;80;21256;-65
2022/07/06 06:55:46;;;;;;;;;;;;;;;30.82;43.43;155416.89;1742540;81;20169;-65
2022/07/06 06:58:12;;;;;;;;;;;;;;;30.88;43.71;155432.66;1682435;84;20173;-65
2022/07/06 07:00:39;;;;;;;;;;;;;;;30.95;44.02;155451.09;1696499;84;20196;-65
2022/07/06 07:03:07;;;;;;;;;;;;;;;31.04;45.50;155473.39;1689689;84;20164;-66
2022/07/06 07:05:34;;;;;;;;;;;;;;;31.10;45.56;155487.86;1705694;84;23066;-65
2022/07/06 07:08:01;;;;;;;;;;;;;;;31.14;45.23;155499.69;1687922;82;20171;-65
2022/07/06 07:10:28;;;;;;;;;;;;;;;31.22;43.90;155519.47;1686890;84;20478;-65
2022/07/06 07:12:56;;;;;;;;;;;;;;;31.29;43.40;155537.86;1697861;84;20492;-65
2022/07/06 07:15:23;;;;;;;;;;;;;;;31.39;43.61;155562.84;1704050;84;20185;-64
2022/07/06 07:17:50;;;;;;;;;;;;;;;31.42;43.16;155569.42;1708956;84;21945;-64
2022/07/06 07:20:17;;;;;;;;;;;;;;;31.41;43.69;155566.80;1696929;83;20422;-64
2022/07/06 07:22:43;;;;;;;;;;;;;;;31.41;44.56;155568.09;1707765;84;20197;-65
2022/07/06 07:25:10;;;;;;;;;;;;;;;31.42;45.19;155570.72;1709086;84;20231;-64
2022/07/06 07:27:37;;;;;;;;;;;;;;;31.40;45.49;155565.47;1693235;84;20430;-65
2022/07/06 07:30:05;;;;;;;;;;;;;;;31.38;45.82;155560.20;1711220;83;21261;-65
2022/07/06 07:32:31;;;;;;;;;;;;;;;31.40;45.64;155565.47;1709787;83;20410;-65
2022/07/06 07:34:58;;;;;;;;;;;;;;;31.39;46.03;155562.84;1686690;85;20536;-64
2022/07/06 07:37:25;;;;;;;;;;;;;;;31.33;45.92;155547.08;1705764;83;20274;-65
2022/07/06 07:39:52;;;;;;;;;;;;;;;31.28;45.40;155533.89;1710777;83;20209;-65
2022/07/06 07:42:19;;;;;;;;;;;;;;;31.21;45.68;155515.50;1711609;84;21254;-65
2022/07/06 07:44:46;;;;;;;;;;;;;;;31.13;45.99;155497.06;1711518;84;20387;-65
2022/07/06 07:47:13;;;;;;;;;;;;;;;31.12;45.29;155494.44;1711545;84;20188;-64
2022/07/06 07:49:40;;;;;;;;;;;;;;;31.17;45.08;155506.28;1706124;83;20232;-63
2022/07/06 07:52:06;;;;;;;;;;;;;;;31.19;44.56;155510.20;1711941;81;20180;-64
2022/07/06 07:54:33;;;;;;;;;;;;;;;31.23;43.05;155522.09;1737602;82;21126;-64
2022/07/06 07:57:00;;;;;;;;;;;;;;;31.29;42.42;155536.56;1716062;83;20180;-64
2022/07/06 07:59:26;;;;;;;;;;;;;;;31.38;41.11;155560.20;1713867;83;20434;-63
2022/07/06 08:01:54;;;;;;;;;;;;;;;31.46;40.38;155578.59;1710349;83;20177;-63
2022/07/06 08:04:21;;;;;;;;;;;;;;;31.51;40.32;155591.78;1711956;83;20162;-63
2022/07/06 08:06:48;;;;;;;;;;;;;;;31.58;39.44;155610.17;1711454;83;21153;-63
2022/07/06 08:09:16;;;;;;;;;;;;;;;31.63;39.18;155623.31;1712887;83;20409;-63
2022/07/06 08:11:43;;;;;;;;;;;;;;;31.69;38.93;155637.78;1706554;83;20178;-64
2022/07/06 08:14:11;;;;;;;;;;;;;;;31.76;38.04;155654.88;1704789;83;20435;-64
2022/07/06 08:16:38;;;;;;;;;;;;;;;31.86;37.64;155681.20;1706877;83;20178;-64
2022/07/06 08:19:04;;;;;;;;;;;;;;;31.98;37.28;155712.78;1750845;80;21212;-64
2022/07/06 08:21:31;;;;;;;;;;;;;;;32.08;36.69;155737.77;1746664;82;20462;-64
2022/07/06 08:24:00;;;;;;;;;;;;;;;32.20;36.16;155768.00;1746465;82;20198;-64
2022/07/06 08:26:27;;;;;;;;;;;;;;;32.30;35.18;155794.28;1745500;82;20410;-64
2022/07/06 08:28:53;;;;;;;;;;;;;;;32.39;34.65;155815.41;1746721;80;20173;-64
2022/07/06 08:31:20;;;;;;;;;;;;;;;32.45;34.41;155831.19;1774970;80;21195;-64
2022/07/06 08:33:48;;;;;;;;;;;;;;;32.50;34.27;155844.31;1777342;80;20468;-64
2022/07/06 08:36:15;;;;;;;;;;;;;;;32.58;34.31;155865.34;1764857;80;20229;-65
2022/07/06 08:38:42;;;;;;;;;;;;;;;32.70;34.05;155894.31;1758208;80;20611;-64
2022/07/06 08:41:09;;;;;;;;;;;;;;;32.79;33.86;155916.67;1777492;80;20180;-65
2022/07/06 08:43:37;;;;;;;;;;;;;;;32.88;33.67;155939.05;1777467;80;22478;-64
2022/07/06 08:46:05;;;;;;;;;;;;;;;32.94;32.78;155954.87;1751740;80;20649;-64
2022/07/06 08:48:34;;;;;;;;;;;;;;;33.03;32.37;155978.53;1746575;82;20151;-64
2022/07/06 08:51:02;;;;;;;;;;;;;;;33.17;32.61;156012.75;1746715;82;20230;-64
2022/07/06 08:53:29;;;;;;;;;;;;;;;33.27;32.22;156039.03;1746941;82;20419;-64
2022/07/06 08:55:56;;;;;;;;;;;;;;;33.37;31.75;156065.38;1762179;81;21165;-64
2022/07/06 08:58:27;;;;;;;;;;;;;;;33.45;31.77;156083.84;1761506;80;20609;-63
2022/07/06 09:00:57;;;;;;;;;;;;;;;33.55;31.79;156110.19;1756157;81;20635;-64
2022/07/06 09:03:27;;;;;;;;;;;;;;;33.68;31.79;156143.08;1753530;81;20144;-64
2022/07/06 09:05:56;;;;;;;;;;;;;;;33.73;31.60;156156.22;1753108;82;20188;-64
2022/07/06 09:08:22;;;;;;;;;;;;;;;33.77;31.87;156165.45;1734262;82;21082;-64
2022/07/06 09:10:50;;;;;;;;;;;;;;;33.75;32.04;156160.19;1750602;81;20178;-64
2022/07/06 09:13:18;;;;;;;;;;;;;;;33.75;32.15;156161.48;1749846;81;20177;-63
2022/07/06 09:15:45;;;;;;;;;;;;;;;33.78;32.17;156168.08;1743940;81;20206;-63
2022/07/06 09:18:11;;;;;;;;;;;;;;;33.83;32.20;156181.23;1743137;82;20225;-64
2022/07/06 09:20:38;;;;;;;;;;;;;;;33.89;32.16;156197.00;1754756;81;21235;-64
2022/07/06 09:23:06;;;;;;;;;;;;;;;33.90;32.48;156199.64;1730328;82;20193;-64
2022/07/06 09:25:34;;;;;;;;;;;;;;;33.94;32.84;156210.22;1751575;81;20211;-64
2022/07/06 09:28:01;;;;;;;;;;;;;;;33.96;33.37;156215.52;1751142;81;20200;-64
2022/07/06 09:30:29;;;;;;;;;;;;;;;33.94;33.31;156208.87;1750199;81;20097;-64
2022/07/06 09:32:57;;;;;;;;;;;;;;;33.94;33.65;156208.87;1743901;82;21143;-65
2022/07/06 09:35:27;;;;;;;;;;;;;;;34.01;34.33;156227.33;1746230;82;20209;-64
2022/07/06 09:38:08;;;;;;;;;;;;;;;34.03;34.66;156231.30;1746646;82;20201;-64
2022/07/06 09:40:37;;;;;;;;;;;;;;;34.08;35.08;156244.45;1745460;82;20201;-65
2022/07/06 09:43:19;;;;;;;;;;;;;;;34.13;34.33;156257.61;1745104;81;20422;-64
2022/07/06 09:45:51;;;;;;;;;;;;;;;34.16;33.77;156265.55;1745852;82;21145;-64
2022/07/06 09:48:24;;;;;;;;;;;;;;;34.14;32.42;156261.58;1744486;81;20226;-64
2022/07/06 09:50:53;;;;;;;;;;;;;;;34.05;31.46;156236.56;1746118;81;20173;-65
2022/07/06 09:53:20;;;;;;;;;;;;;;;34.02;32.47;156228.67;1745143;81;20397;-64
2022/07/06 09:55:48;;;;;;;;;;;;;;;33.94;31.76;156208.87;1745563;82;20160;-64
2022/07/06 09:58:15;;;;;;;;;;;;;;;33.91;31.20;156200.98;1745168;81;21945;-64
2022/07/06 10:00:43;;;;;;;;;;;;;;;33.88;30.79;156193.09;1745247;82;20215;-65
2022/07/06 10:03:09;;;;;;;;;;;;;;;33.88;31.07;156193.09;1744145;80;20223;-65
2022/07/06 10:05:40;;;;;;;;;;;;;;;33.89;31.55;156197.00;1742071;81;20330;-65
2022/07/06 10:08:12;;;;;;;;;;;;;;;33.95;31.96;156211.50;1745730;82;20456;-65
2022/07/06 10:10:39;;;;;;;;;;;;;;;34.06;31.62;156240.53;1740401;81;21723;-66
2022/07/06 10:13:06;;;;;;;;;;;;;;;34.15;31.20;156262.86;1729115;82;20460;-65
2022/07/06 10:15:35;;;;;;;;;;;;;;;34.24;31.54;156286.58;1736142;82;20204;-65
2022/07/06 10:18:06;;;;;;;;;;;;;;;34.32;31.40;156306.34;1744841;82;20144;-66
2022/07/06 10:20:52;;;;;;;;;;;;;;;;;;;;;
2022/07/06 10:23:16;;;;;;;;;;;;;;;34.38;30.67;156322.13;1740557;81;20222;-65
2022/07/06 10:25:43;;;;;;;;;;;;;;;34.45;30.32;156339.25;1744621;80;20124;-65
2022/07/06 10:28:14;;;;;;;;;;;;;;;34.49;30.08;156349.81;1734284;82;20193;-65
2022/07/06 10:30:39;;;;;;;;;;;;;;;34.54;29.45;156361.69;1747442;81;20169;-65
2022/07/06 10:33:05;;;;;;;;;;;;;;;34.56;29.40;156368.23;1753241;80;20507;-66
2022/07/06 10:35:32;;;;;;;;;;;;;;;34.56;28.43;156368.23;1753450;81;21279;-65
2022/07/06 10:38:09;;;;;;;;;;;;;;;34.53;28.60;156360.34;1762132;80;20411;-65
2022/07/06 10:43:22;;;;;;;;;;;;;;;34.44;30.61;156336.63;1749846;81;20167;-66
2022/07/06 10:45:50;;;;;;;;;;;;;;;34.31;31.53;156302.38;1750502;81;20453;-65
2022/07/06 10:48:17;;;;;;;;;;;;;;;34.22;31.95;156281.33;1764146;81;21254;-66
2022/07/06 10:50:47;;;;;;;;;;;;;;;34.12;31.66;156254.97;1755759;81;20418;-66
2022/07/06 10:53:15;;;;;;;;;;;;;;;34.06;31.82;156239.19;1758525;81;20421;-65
2022/07/06 10:55:47;;;;;;;;;;;;;;;33.97;32.10;156216.81;1762736;81;20128;-66
2022/07/06 10:58:14;;;;;;;;;;;;;;;33.85;32.41;156187.83;1764234;81;20379;-65
2022/07/06 11:00:56;;;;;;;;;;;;;;;33.75;32.63;156161.48;1764270;81;22045;-64
2022/07/06 11:03:49;;;;;;;;;;;;;;;33.70;32.33;156149.62;1764190;81;20138;-66
2022/07/06 11:06:20;;;;;;;;;;;;;;;33.60;32.80;156123.33;1764542;80;20691;-66
2022/07/06 11:08:54;;;;;;;;;;;;;;;33.54;32.99;156107.55;1765241;81;20453;-66
2022/07/06 11:11:33;;;;;;;;;;;;;;;33.52;32.96;156102.28;1754211;80;20106;-66
2022/07/06 11:14:07;;;;;;;;;;;;;;;33.47;32.92;156089.09;1763043;81;21250;-65
2022/07/06 11:16:51;;;;;;;;;;;;;;;33.45;33.16;156085.17;1765194;80;20120;-67
2022/07/06 11:19:20;;;;;;;;;;;;;;;33.45;33.00;156083.84;1761482;81;20986;-67
2022/07/06 11:21:52;;;;;;;;;;;;;;;33.38;32.17;156066.67;1764661;81;20125;-67
2022/07/06 11:24:20;;;;;;;;;;;;;;;33.32;31.88;156052.23;1764855;81;20505;-65
2022/07/06 11:26:48;;;;;;;;;;;;;;;33.25;31.87;156033.78;1765099;81;21215;-67
2022/07/06 11:29:17;;;;;;;;;;;;;;;33.25;31.31;156033.78;1764792;80;20505;-65
2022/07/06 11:31:45;;;;;;;;;;;;;;;33.24;31.64;156031.16;1766294;80;20128;-66
2022/07/06 11:34:16;;;;;;;;;;;;;;;33.22;32.25;156027.23;1764938;81;20187;-66
2022/07/06 11:36:44;;;;;;;;;;;;;;;33.21;32.48;156023.27;1764934;81;20465;-66
2022/07/06 11:39:11;;;;;;;;;;;;;;;33.19;32.60;156018.00;1766187;80;21829;-66
2022/07/06 11:41:39;;;;;;;;;;;;;;;33.20;32.46;156020.63;1782315;80;20170;-66
2022/07/06 11:44:06;;;;;;;;;;;;;;;33.19;31.93;156018.00;1783238;80;20245;-66
2022/07/06 11:46:34;;;;;;;;;;;;;;;33.11;32.00;155999.61;1783106;80;20226;-66
2022/07/06 11:49:06;;;;;;;;;;;;;;;33.07;32.51;155989.09;1778852;79;20128;-66
2022/07/06 11:51:35;;;;;;;;;;;;;;;33.03;32.19;155977.23;1763469;81;21983;-67
2022/07/06 11:54:09;;;;;;;;;;;;;;;32.98;32.50;155965.37;1759754;81;20445;-66
2022/07/06 11:56:36;;;;;;;;;;;;;;;33.00;32.29;155971.97;1759483;81;20437;-66
2022/07/06 11:59:03;;;;;;;;;;;;;;;33.00;31.88;155970.64;1763898;81;20138;-66
2022/07/06 12:01:31;;;;;;;;;;;;;;;33.01;31.51;155973.27;1762753;80;21197;-66
2022/07/06 12:03:59;;;;;;;;;;;;;;;32.99;31.90;155969.34;1763517;80;21228;-66
2022/07/06 12:06:27;;;;;;;;;;;;;;;33.02;31.59;155975.89;1755928;80;20149;-67
2022/07/06 12:08:57;;;;;;;;;;;;;;;33.04;31.29;155981.16;1733080;82;20499;-66
2022/07/06 12:11:29;;;;;;;;;;;;;;;33.05;31.86;155983.83;1745378;82;20755;-66
2022/07/06 12:13:58;;;;;;;;;;;;;;;33.01;32.43;155973.27;1750416;81;20174;-67
2022/07/06 12:16:31;;;;;;;;;;;;;;;33.02;32.81;155975.89;1750239;82;21882;-67
2022/07/06 12:18:57;;;;;;;;;;;;;;;33.06;33.00;155985.13;1690058;84;20140;-69
2022/07/06 12:21:24;;;;;;;;;;;;;;;33.07;32.77;155989.09;1690737;85;20120;-69
2022/07/06 12:23:51;;;;;;;;;;;;;;;33.13;33.04;156004.86;1719269;83;20543;-66
2022/07/06 12:26:24;;;;;;;;;;;;;;;33.20;32.92;156021.97;1720318;82;20227;-66
2022/07/06 12:29:01;;;;;;;;;;;;;;;33.21;32.63;156024.59;1720845;82;21071;-66
2022/07/06 12:31:37;;;;;;;;;;;;;;;33.19;32.87;156018.00;1714529;83;20137;-66
2022/07/06 12:34:04;;;;;;;;;;;;;;;33.20;32.64;156021.97;1714462;81;20185;-66
2022/07/06 12:36:34;;;;;;;;;;;;;;;33.21;32.52;156023.27;1715490;83;20869;-66
2022/07/06 12:39:01;;;;;;;;;;;;;;;33.26;32.68;156036.41;1700344;82;20961;-66
2022/07/06 12:41:30;;;;;;;;;;;;;;;33.38;32.32;156068.02;1697283;82;21857;-66
2022/07/06 12:44:04;;;;;;;;;;;;;;;33.41;32.03;156075.91;1746082;82;20403;-66
2022/07/06 12:46:38;;;;;;;;;;;;;;;33.40;31.79;156071.98;1746124;82;20118;-67
2022/07/06 12:49:25;;;;;;;;;;;;;;;33.36;31.40;156062.75;1743914;81;20162;-66